UVAGARNER FIELD
METARs for nearby airports:
N 0 941' KUVA 171355Z 27006KT 7SM OVC004 10/10 A3022
E 30 930' KHDO 171351Z 27007KT 8SM OVC003 12/11 A3020
E 47 773' KCVB 171335Z 26009KT 7SM OVC003 11/11 A3022
NW 49 2372' KECU 171355Z 30005KT M1/4SM FG OVC002 05/05 A3024
SE 53 474' KCOT 171353Z 30004KT 6SM BR OVC003 11/11 A3023
W 54 1081' KDLF 171346Z 32004KT 1 1/4SM BR OVC002 10/10 A3021
NE 57 1616' KERV 171355Z 31005KT 4SM BR OVC004 09/08 A3018
E 61 690' KSKF 171259Z 26006KT 10SM OVC005 12/12 A3015
W 62 1002' KDRT 171353Z 30004KT 2 1/2SM BR OVC004 11/11 A3022
E 66 430' KPEZ 171335Z 29007KT 5SM BR OVC005 12/11 A3021
E 67 577' KSSF 171353Z 26009KT 10SM OVC005 12/11 A3018
E 69 809' KSAT 171351Z 24005KT 7SM -DZ OVC005 12/11 A3018
N 78 1753' KJCT 171351Z 27006KT 5SM BR OVC004 08/08 A3020
E 79 762' KRND 171331Z 27005KT 10SM OVC004 12/12 A3016
E 93 658' KBAZ 171351Z 26008KT 10SM BR OVC003 12/11 A3016
NW 95 2139' KSOA 171335Z 00000KT 1/4SM FG OVC001 07/07 A3025
TAFs for nearby airports:
W 54 1081' KDLF TAF
  AMD KDLF 171300Z 1713/1816 33004KT 6000 BR OVC003 QNH3016INS
  TEMPO 1713/1715 0800 FG OVC002
  BECMG 1716/1717 32006KT 9999 NSW BKN007 BKN015 BKN220 QNH3021INS
  BECMG 1718/1719 35008KT 9999 SCT020 SCT200 QNH3006INS
  BECMG 1807/1808 14004KT 4800 BR OVC006 QNH2999INS TX22/1720Z TN09/1713Z
E 61 690' KSKF TAF KSKF 171000Z 1710/1816 23006KT 8000 BR BKN005 QNH3010INS
  BECMG 1714/1715 25008KT 9999 NSW SCT010 SCT250 QNH3006INS
  BECMG 1808/1809 VRB06KT 8000 BR BKN004 QNH3004INS TX23/1720Z TN13/1711Z
W 62 1002' KDRT KDRT 171354Z 1714/1812 27003KT 3SM BR OVC003
  FM171600 29004KT P6SM BKN006
  FM171800 28004KT P6SM SCT250
  FM180000 15005KT P6SM BKN250
E 67 577' KSSF TAF KSSF 171120Z 1712/1812 25010KT 5SM BR OVC005
  FM171600 27006KT P6SM BKN250
  FM181000 21004KT 5SM BR OVC008
E 69 809' KSAT TAF KSAT 171120Z 1712/1818 24010KT 4SM BR OVC004
  FM171600 27006KT P6SM BKN250
  FM181000 21004KT 5SM BR OVC008
  FM181200 VRB03KT 2SM BR OVC003
  FM181700 20008KT P6SM BKN010
N 78 1753' KJCT TAF
  AMD KJCT 171341Z 1714/1812 25005KT 3SM BR OVC003
  FM171415 26006KT P6SM OVC004
  FM171530 27006KT P6SM SCT015 BKN020
  FM171600 27005KT P6SM SCT250
E 79 762' KRND TAF KRND 171000Z 1710/1816 24009KT 6000 BR OVC004 QNH3013INS
  TEMPO 1712/1715 3200 BR SCT005 OVC011
  BECMG 1715/1716 27004KT 9999 NSW SCT120 QNH3002INS
  BECMG 1810/1811 19004KT 6000 -SHRA BR OVC007 QNH3003INS TX23/1720Z TN11/1710Z
NW 95 2139' KSOA TAF KSOA 171120Z 1712/1812 22004KT 1/4SM FG OVC001
  FM171500 29004KT 3SM BR BKN005
  FM171600 28004KT P6SM BKN050
  FM171800 29004KT P6SM SCT250
Area forecast:
000
FAUS44 KKCI 101845
FA4W  
DFWC FA 101845
SYNOPSIS AND VFR CLDS/WX
SYNOPSIS VALID UNTIL 111300
CLDS/WX VALID UNTIL 110700...OTLK VALID 110700-111300
OK TX AR TN LA MS AL
.
SEE AIRMET SIERRA FOR IFR CONDS AND MTN OBSCN.
TS IMPLY SEV OR GTR TURB SEV ICE LLWS AND IFR CONDS.
NON MSL HGTS DENOTED BY AGL OR CIG.
.
SYNOPSIS...LOW PRES OVR SERN MO WITH CDFNT THRU ERN AR-NERN
LA-NWRN GLFMEX. BY 13Z LOW OVR SERN IN WITH CDFNT THRU E MIDDLE
TN-NERN AL-SERN MA-SERN LA-NWRN GLFMEX.
.
OK
PNHDL-W...SKC. TIL 22Z OCNL SCT060 WND N G25KT. OTLK...VFR.
CNTRL-SE....SCT-BKN040 TOP 100. 22Z SCT040. 02Z SKC. OTLK...VFR.
NERN...BKN030 TOP 060. 22Z SCT-BKN040. 01Z SCT040. OTLK...XTRM
NERN MVFR BR ELSW VFR.
.
NWRN TX
PNHDL...SKC. OTLK...VFR.
S PLAINS...SCT150. S PTN OCNL SCT070. 22Z N PTN SKC. 02Z S PTN
SKC. OTLK...VFR.
.
SWRN TX
MTNS WWD...
N PTN.. SCT120 SCT CI. 01Z SKC. OTLK...VFR.
S PTN..BKN090 TOP 120. 23Z SCT080-100. OTLK...VFR.
RMNDR...
W PTN..SCT-BKN080 TOP 140. 23Z SCT080. OTLK...VFR.
E PTN..BKN050-070 TOP 150. ISOL -SHRA. 02Z N PTN SCT080. S PTN
BKN060 TOP 160. OTLK...VFR.
.
N CNTRL TX
SCT060-080 SCT CI. 23Z SCT120-140. OTLK...VFR.
.
NERN TX
SCT025 SCT-BKN060 TOP 120. 23Z SCT120-140. OTLK...VFR.
.
SERN TX
CSTL SXNS...BKN025 TOP 160. CSTLN ISOL -TSRA. CB TOP FL400.
23Z SCT025 SCT-BKN060 TOP 120. 03Z SCT040. OTLK...VFR.
INLAND...SCT040 SCT140 SCT-BKN CI. 01Z SCT150 SCT CI. OTLK...VFR.
.
S CNTRL TX
CSTL PLAINS-LWR RIOGD...
VCNTY CSTLN..BKN020 TOP FL180. WDLY SCT -SHRA/ISOL -TSRA. CB TOP
FL450. BECMG 2123 BKN020 TOP 140.  05Z BKN040. OTLK...VFR.
INLAND..BKN035 TOP 120. BECMG 0305 BKN040 TOP 100. OTLK...VFR.
HILL COUNTRY...BKN070 TOP FL200. 23Z SCT070 BKN120. 03Z SCT070
SCT120. OTLK...VFR.
RMNDR...
N PTN..BKN040 TOP 120. 23Z SCT-BKN050 TOP 100. 03Z SCT060 SCT CI.
OTLK...VFR.
S PTN..BKN030 TOP 160. TIL 21Z WDLY SCT -SHRA. OTLK...MVFR CIG.
.
AR
NW...OVC030 TOP FL180. BECMG 0204 SCT030. OTLK...XTRM N MVFR CIG
09Z IFR CIG BR ELSW VFR.
SW...SCT030 SCT140. 00Z SCT100 SCT CI. OTLK...VFR.
E HLF...BKN040 TOP 160. ISOL -TSRA. CB TOP FL420. 01Z SCT030
SCT120. OTLK...VFR 09Z MVFR BR.
.
LA
N-CNTRL...SCT025 SCT-BKN050 TOP 100. 21Z E PTN TOP 140. ISOL
-TSRA. CB TOP FL450. 02Z SCT CI. OTLK...VFR.
S...BKN-SCT025 BKN050 TOP FL210. WDLY SCT -SHRA/ISOL -TSRA. CB
TOP FL450. BECMG 0204 SCT025 SCT140 SCT-BKN CI. OTLK...W PTN VFR
10Z MVFR CIG BR E PTN MVFR BR 10Z IFR CIG BR.
.
TN
W...BKN040 TOP 160. ISOL -TSRA. CB TOP FL420. BECMG 0103
BKN-SCT025 TOP 120. OTLK...MVFR CIG BR.
MIDDLE...OVC030 TOP FL200. WDLY SCT -SHRA/TSRA. CB TOP FL450. 00Z
BKN040 TOP 140. WDLY SCT -SHRA/ISOL -TSRA. CB TOP FL420.
05Z OCNL VIS 3SM BR. OTLK...MVFR CIG BR 09Z IFR CIG BR.
E...SCT025 BKN040 TOP FL250. WDLY SCT -SHRA/TSRA. CB TOP FL450.
BECMG 0305 BKN040. WDLY SCT -SHRA. OCNL VIS 3SM BR. OTLK...MVFR
CIG SHRA BR 09Z IFR CIG BR.
.
MS AL
N-CNTRL PTN...
W MS..BKN-SCT040 TOP 140. ISOL -SHRA/TSRA. CB TOP FL420.
BECMG 0204 BKN035 TOP 100. OTLK...MVFR CIG BR.
ELSW..BKN-SCT025 BKN040 TOP FL240. WDLY SCT -SHRA/TSRA. CB TOP
FL450. BECMG 0002 BKN040 TOP 140. ISOL -SHRA/TSRA.
06Z BKN010-020 TOP 060. OCNL VIS 3SM BR. OTLK...MVFR CIG BR
09Z IFR CIG BR.
S PTN...BKN025 TOP FL220. WDLY SCT -SHRA. ISOL -TSRA. CB TOP
FL450. BECMG 0305 SCT020 SCT100. OCNL VIS 3SM BR. OTLK...MVFR BR
09Z IFR CIG BR.
.
THE AREA FORECAST WILL TERMINATE AT 2359Z ON 10 OCTOBER 2017. IN
PLACE OF THE AREA FORECAST PLEASE SEE THE GRAPHICAL FORECAST AT
WWW.AVIATIONWEATHER.GOV/GFA. GRAPHICAL AND TEXT AIRMETS WILL
CONTINUE AS REGULARLY SCHEDULED.
....

Shortcut to this page: http://wxbay.com.

Data may contain errors.